New Munster, WI (53152)

9:28 AM CDT on July 25, 2016 (GMT -0500)
KWITWINL2 | | Change Station

Elev 849 ft 42.53 °N, 88.21 °W | Updated 5 minutes ago

Clear
Clear
77.1 °F
Feels Like 79 °F
N
3.0
Wind Variable Wind from NW
Gusts 7.0 mph

Today
High -- | Low -- °F
--% Chance of Precip.
Yesterday
High -- | Low -- °F
Precip. -- in
Pressure 30.00 in
Visibility 10.0 miles
Clouds Clear
Heat Index 79 °F
Dew Point 68 °F
Humidity 73%
Rainfall 0.00 in
Snow Depth Not available.
5:38 AM 8:19 PM
Waning Gibbous, 65% visible
METAR KBUU 251415Z AUTO 33007KT 10SM CLR 25/19 A3000 RMK AO2 T02490189
Pressure 30.00 in
Visibility 10.0 miles
Clouds Clear
Heat Index 79 °F
Dew Point 68 °F
Humidity 73%
Rainfall 0.00 in
Snow Depth Not available.
5:38 AM 8:19 PM
Waning Gibbous, 65% visible
METAR KBUU 251415Z AUTO 33007KT 10SM CLR 25/19 A3000 RMK AO2 T02490189

10-Day Weather Forecast

Almanac

Astronomy

Jul. 25, 2016 Rise Set
Actual Time
Civil Twilight
Nautical Twilight
Astronomical Twilight
Moon
Length of Visible Light
Length of Day
Tomorrow will be .
, % of the Moon is Illuminated

Today's Extremes

State Highs State Lows

Community

WunderPhotos

Upload Photos

1,927,305 photos uploaded!

WunderBlog® & News

Nearby

Air Quality

  Air Quality AQ Index Pollutant
Not available.

Snow Depth

Station Depth Elevation

Earthquake Activity

City Distance Mag. Time & Date
Minimum magnitude displayed is 2.5.

Coastal Water Temperatures

Place Temperature

Stations

Nearby Weather Stations

Station Location Temp. Windchill Dew Point Humidity Wind Precip. Elev Updated Type
                   

Watches & Warnings

There are currently no watches in effect.